createdAt,value
2018-03-28T00:00:11.782Z,65.32
2018-03-28T00:02:45.220Z,64.61
2018-03-28T00:05:18.639Z,64.92
2018-03-28T00:07:52.362Z,64.94
2018-03-28T00:10:25.711Z,64.78
2018-03-28T00:12:59.275Z,64.36
2018-03-28T00:15:32.702Z,64.43
2018-03-28T00:18:06.519Z,64.15
2018-03-28T00:20:40.163Z,64.11
2018-03-28T00:23:14.045Z,64.72
2018-03-28T00:25:47.483Z,65.05
2018-03-28T00:28:21.445Z,64.87
2018-03-28T00:30:55.193Z,64.56
2018-03-28T00:33:28.555Z,64.56
2018-03-28T00:36:02.331Z,65.09
2018-03-28T00:38:35.912Z,65.23
2018-03-28T00:41:09.291Z,64.71
2018-03-28T00:43:44.016Z,64.37
2018-03-28T00:46:17.843Z,64.39
2018-03-28T00:48:51.212Z,65.25
2018-03-28T00:51:33.614Z,65.08
2018-03-28T00:54:07.567Z,64.33
2018-03-28T00:56:42.621Z,63.88
2018-03-28T00:59:15.874Z,64.24
2018-03-28T01:01:49.163Z,64.45
2018-03-28T01:04:23.704Z,64.91
2018-03-28T01:06:58.790Z,64.67
2018-03-28T01:09:32.561Z,64.97
2018-03-28T01:12:06.471Z,65.34
2018-03-28T01:14:39.854Z,65.28
2018-03-28T01:17:13.185Z,63.75
2018-03-28T01:19:46.972Z,64.28
2018-03-28T01:22:20.343Z,63.42
2018-03-28T01:24:53.768Z,63.47
2018-03-28T01:27:27.670Z,63.59
2018-03-28T01:30:02.150Z,62.97
2018-03-28T01:32:35.794Z,64.07
2018-03-28T01:35:09.403Z,62.92
2018-03-28T01:37:43.071Z,62.22
2018-03-28T01:40:16.407Z,62.16
2018-03-28T01:42:49.785Z,61.98
2018-03-28T01:45:23.599Z,62.11
2018-03-28T01:47:57.334Z,61.50
2018-03-28T01:50:30.896Z,62.17
2018-03-28T01:53:05.530Z,62.34
2018-03-28T01:55:38.998Z,61.05
2018-03-28T01:58:12.583Z,60.86
2018-03-28T02:00:46.834Z,61.13
2018-03-28T02:05:55.514Z,61.36
2018-03-28T02:08:29.212Z,61.18
2018-03-28T02:11:03.044Z,61.60
2018-03-28T02:13:36.779Z,61.18
2018-03-28T02:16:10.394Z,61.52
2018-03-28T02:18:43.669Z,61.54
2018-03-28T02:21:17.587Z,61.72
2018-03-28T02:23:50.826Z,61.85
2018-03-28T02:26:24.180Z,61.83
2018-03-28T02:28:57.759Z,62.14
2018-03-28T02:31:31.311Z,62.40
2018-03-28T02:34:04.605Z,62.45
2018-03-28T02:36:38.024Z,62.33
2018-03-28T02:39:11.896Z,62.56
2018-03-28T02:41:45.496Z,63.07
2018-03-28T02:44:19.458Z,63.01
2018-03-28T02:46:53.364Z,63.26
2018-03-28T02:49:26.985Z,63.29
2018-03-28T02:52:00.877Z,63.91
2018-03-28T02:54:35.564Z,63.99
2018-03-28T02:57:09.079Z,64.50
2018-03-28T02:59:42.875Z,64.64
2018-03-28T03:02:16.592Z,64.52
2018-03-28T03:04:53.209Z,64.57
2018-03-28T03:07:30.125Z,64.76
2018-03-28T03:10:04.911Z,64.75
2018-03-28T03:12:39.001Z,64.66
2018-03-28T03:15:12.941Z,64.64
2018-03-28T03:17:46.728Z,64.74
2018-03-28T03:20:21.007Z,64.97
2018-03-28T03:22:55.529Z,65.36
2018-03-28T03:25:28.778Z,65.80
2018-03-28T03:28:02.647Z,65.83
2018-03-28T03:30:36.174Z,65.81
2018-03-28T03:33:09.634Z,65.80
2018-03-28T03:35:43.043Z,66.04
2018-03-28T03:38:16.738Z,66.00
2018-03-28T03:40:50.046Z,66.06
2018-03-28T03:43:24.103Z,66.48
2018-03-28T03:45:57.857Z,66.83
2018-03-28T03:48:31.335Z,66.96
2018-03-28T03:51:05.397Z,66.97
2018-03-28T03:53:38.958Z,66.92
2018-03-28T03:56:12.955Z,66.77
2018-03-28T03:58:46.476Z,66.39
2018-03-28T04:01:20.154Z,66.55
2018-03-28T04:03:53.689Z,66.48
2018-03-28T04:06:27.302Z,66.46
2018-03-28T04:09:00.803Z,66.44
2018-03-28T04:11:34.481Z,66.51
2018-03-28T04:14:08.631Z,66.29
2018-03-28T04:16:42.438Z,66.31
2018-03-28T04:19:15.990Z,66.31
2018-03-28T04:21:49.634Z,66.19
2018-03-28T04:24:24.064Z,66.12
2018-03-28T04:26:57.614Z,66.39
2018-03-28T04:29:31.832Z,66.63
2018-03-28T04:32:05.931Z,67.15
2018-03-28T04:34:39.408Z,67.29
2018-03-28T04:37:12.801Z,67.12
2018-03-28T04:39:46.787Z,67.40
2018-03-28T04:42:20.265Z,67.57
2018-03-28T04:44:54.441Z,67.95
2018-03-28T04:47:29.027Z,67.81
2018-03-28T04:50:03.119Z,67.79
2018-03-28T04:52:40.097Z,67.85
2018-03-28T04:55:14.376Z,67.84
2018-03-28T04:57:48.845Z,67.78
2018-03-28T05:00:23.088Z,67.84
2018-03-28T05:02:56.451Z,68.21
2018-03-28T05:05:40.850Z,67.55
2018-03-28T05:08:24.855Z,67.92
2018-03-28T05:11:03.550Z,67.87
2018-03-28T05:13:37.646Z,68.22
2018-03-28T05:16:13.278Z,68.16
2018-03-28T05:18:48.382Z,68.13
2018-03-28T05:21:23.020Z,68.37
2018-03-28T05:23:56.724Z,68.57
2018-03-28T05:26:31.307Z,68.58
2018-03-28T05:29:05.110Z,68.48
2018-03-28T05:31:39.022Z,68.34
2018-03-28T05:34:12.727Z,68.40
2018-03-28T05:36:46.218Z,68.63
2018-03-28T05:39:20.110Z,68.90
2018-03-28T05:41:54.071Z,68.79
2018-03-28T05:44:27.834Z,69.19
2018-03-28T05:47:02.754Z,69.04
2018-03-28T05:49:38.027Z,69.02
2018-03-28T05:52:11.817Z,69.51
2018-03-28T05:54:45.900Z,69.63
2018-03-28T05:57:24.767Z,69.70
2018-03-28T05:59:59.750Z,69.31
2018-03-28T06:02:34.826Z,69.54
2018-03-28T06:05:08.898Z,69.77
2018-03-28T06:07:42.631Z,69.96
2018-03-28T06:10:18.580Z,70.25
2018-03-28T06:12:52.106Z,70.60
2018-03-28T06:15:25.403Z,71.26
2018-03-28T06:18:00.825Z,71.97
2018-03-28T06:20:35.446Z,72.41
2018-03-28T06:23:09.323Z,72.91
2018-03-28T06:25:43.714Z,73.33
2018-03-28T06:28:17.924Z,73.12
2018-03-28T06:30:51.537Z,72.76
2018-03-28T06:33:25.711Z,72.67
2018-03-28T06:35:59.554Z,73.03
2018-03-28T06:38:33.823Z,72.74
2018-03-28T06:41:08.838Z,72.79
2018-03-28T06:43:43.464Z,72.75
2018-03-28T06:46:17.211Z,72.50
2018-03-28T06:48:51.351Z,72.75
2018-03-28T06:51:26.159Z,72.67
2018-03-28T06:54:00.298Z,72.07
2018-03-28T06:56:33.811Z,72.67
2018-03-28T06:59:07.565Z,72.40
2018-03-28T07:04:02.825Z,71.15
2018-03-28T07:06:36.594Z,71.25
2018-03-28T07:09:10.083Z,70.81
2018-03-28T07:11:44.166Z,70.51
2018-03-28T07:14:17.628Z,70.03
2018-03-28T07:16:51.454Z,69.99
2018-03-28T07:19:27.275Z,70.70
2018-03-28T07:22:01.803Z,70.62
2018-03-28T07:24:35.376Z,71.24
2018-03-28T07:27:10.950Z,71.24
2018-03-28T07:29:52.011Z,71.67
2018-03-28T07:32:25.882Z,72.08
2018-03-28T07:34:59.939Z,72.27
2018-03-28T07:37:34.915Z,71.68
2018-03-28T07:40:11.628Z,71.99
2018-03-28T07:42:46.295Z,72.39
2018-03-28T07:45:23.737Z,71.66
2018-03-28T07:47:58.185Z,71.16
2018-03-28T07:50:32.468Z,70.92
2018-03-28T07:53:06.080Z,70.33
2018-03-28T07:55:39.699Z,70.04
2018-03-28T07:58:14.167Z,69.86
2018-03-28T08:00:47.823Z,69.91
2018-03-28T08:03:21.383Z,69.96
2018-03-28T08:05:56.487Z,69.96
2018-03-28T08:08:31.163Z,69.85
2018-03-28T08:11:06.948Z,69.82
2018-03-28T08:13:41.371Z,70.06
2018-03-28T08:16:17.636Z,69.58
2018-03-28T08:18:52.075Z,69.84
2018-03-28T08:21:25.940Z,69.62
2018-03-28T08:23:59.482Z,69.44
2018-03-28T08:26:34.471Z,69.00
2018-03-28T08:29:08.204Z,68.88
2018-03-28T08:31:41.972Z,68.77
2018-03-28T08:34:16.258Z,69.43
2018-03-28T08:36:50.063Z,69.97
2018-03-28T08:39:23.525Z,70.39
2018-03-28T08:41:57.624Z,69.26
2018-03-28T08:44:31.600Z,68.76
2018-03-28T08:47:05.681Z,68.84
2018-03-28T08:49:39.807Z,68.04
2018-03-28T08:52:14.805Z,68.04
2018-03-28T08:54:49.837Z,67.40
2018-03-28T08:57:23.879Z,67.54
2018-03-28T08:59:57.616Z,67.57
2018-03-28T09:02:31.571Z,67.20
2018-03-28T09:05:07.845Z,66.19
2018-03-28T09:07:41.818Z,65.22
2018-03-28T09:10:15.481Z,65.66
2018-03-28T09:12:49.140Z,65.40
2018-03-28T09:15:24.057Z,65.48
2018-03-28T09:17:58.708Z,66.37
2018-03-28T09:20:32.746Z,66.46
2018-03-28T09:23:06.568Z,67.07
2018-03-28T09:25:41.949Z,67.00
2018-03-28T09:28:15.741Z,67.02
2018-03-28T09:30:50.427Z,67.52
2018-03-28T09:33:24.390Z,67.35
2018-03-28T09:35:57.774Z,67.43
2018-03-28T09:38:31.795Z,67.51
2018-03-28T09:41:06.423Z,66.50
2018-03-28T09:43:40.147Z,66.52
2018-03-28T09:46:15.302Z,66.70
2018-03-28T09:48:48.793Z,66.93
2018-03-28T09:51:23.944Z,65.88
2018-03-28T09:53:57.601Z,65.55
2018-03-28T09:56:31.818Z,64.71
2018-03-28T09:59:06.669Z,64.50
2018-03-28T10:01:45.092Z,64.53
2018-03-28T10:04:18.811Z,63.73
2018-03-28T10:06:53.038Z,64.03
2018-03-28T10:09:28.232Z,65.07
2018-03-28T10:12:02.140Z,65.41
2018-03-28T10:14:36.810Z,66.26
2018-03-28T10:17:11.534Z,66.53
2018-03-28T10:19:45.819Z,66.11
2018-03-28T10:22:19.382Z,65.78
2018-03-28T10:24:53.488Z,65.21
2018-03-28T10:27:27.324Z,65.28
2018-03-28T10:30:01.006Z,65.91
2018-03-28T10:32:34.949Z,65.67
2018-03-28T10:35:12.472Z,65.74
2018-03-28T10:37:46.777Z,65.86
2018-03-28T10:40:21.284Z,66.16
2018-03-28T10:42:54.954Z,64.72
2018-03-28T10:45:30.539Z,65.06
2018-03-28T10:48:04.351Z,64.83
2018-03-28T10:50:38.261Z,66.43
2018-03-28T10:53:12.756Z,66.19
2018-03-28T10:55:46.451Z,66.60
2018-03-28T10:58:20.141Z,66.13
2018-03-28T11:00:54.981Z,65.47
2018-03-28T11:03:28.459Z,66.25
2018-03-28T11:06:02.868Z,66.50
2018-03-28T11:08:38.276Z,65.99
2018-03-28T11:11:14.078Z,66.30
2018-03-28T11:13:48.358Z,66.12
2018-03-28T11:16:22.560Z,65.65
2018-03-28T11:18:57.137Z,66.82
2018-03-28T11:21:30.684Z,66.96
2018-03-28T11:24:04.589Z,67.11
2018-03-28T11:26:39.069Z,66.06
2018-03-28T11:29:13.301Z,65.48
2018-03-28T11:31:50.023Z,65.66
2018-03-28T11:34:24.478Z,64.98
2018-03-28T11:36:58.996Z,66.24
2018-03-28T11:39:32.748Z,66.22
2018-03-28T11:42:06.396Z,64.82
2018-03-28T11:44:40.630Z,64.71
2018-03-28T11:47:14.007Z,64.54
2018-03-28T11:49:47.702Z,64.77
2018-03-28T11:52:22.800Z,64.57
2018-03-28T11:54:56.568Z,64.68
2018-03-28T11:57:30.556Z,64.76
2018-03-28T12:00:05.439Z,63.88
2018-03-28T12:02:40.468Z,64.04
2018-03-28T12:05:14.059Z,64.58
2018-03-28T12:11:28.084Z,63.53
2018-03-28T12:14:28.698Z,62.61
2018-03-28T12:17:06.081Z,62.11
2018-03-28T12:20:08.821Z,62.87
2018-03-28T12:22:51.742Z,63.39
2018-03-28T12:28:19.537Z,63.55
2018-03-28T12:37:27.758Z,64.35
2018-03-28T12:54:38.336Z,65.84
2018-03-28T13:00:15.325Z,65.49
2018-03-28T13:08:01.390Z,65.34
2018-03-28T13:15:42.432Z,64.28
2018-03-28T13:27:33.182Z,65.57
2018-03-28T13:36:34.234Z,69.86
2018-03-28T13:42:25.825Z,73.47
2018-03-28T13:48:03.403Z,74.60
2018-03-28T13:51:03.005Z,76.83
2018-03-28T13:53:59.442Z,76.77
2018-03-28T13:57:13.680Z,77.81
2018-03-28T14:02:53.000Z,78.15
2018-03-28T14:12:02.321Z,87.43
2018-03-28T14:14:37.929Z,92.63
2018-03-28T14:17:14.098Z,95.35
2018-03-28T14:19:49.027Z,95.74
2018-03-28T14:22:23.877Z,96.15
2018-03-28T14:24:58.867Z,96.37
2018-03-28T14:27:42.945Z,96.53
2018-03-28T14:30:18.657Z,100.00
2018-03-28T14:32:53.947Z,100.00
2018-03-28T14:35:45.924Z,100.00
2018-03-28T14:38:23.011Z,100.00
2018-03-28T14:41:02.038Z,100.00
2018-03-28T14:43:40.030Z,100.00
2018-03-28T14:46:17.468Z,100.00
2018-03-28T14:48:56.675Z,100.00
2018-03-28T14:51:33.215Z,100.00
2018-03-28T14:54:07.229Z,100.00
2018-03-28T14:56:45.865Z,100.00
2018-03-28T14:59:22.786Z,100.00
2018-03-28T15:01:57.882Z,100.00
2018-03-28T15:04:32.655Z,100.00
2018-03-28T15:07:07.667Z,100.00
2018-03-28T15:09:48.847Z,100.00
2018-03-28T15:12:26.501Z,100.00
2018-03-28T15:15:05.928Z,100.00
2018-03-28T15:17:41.244Z,100.00
2018-03-28T15:20:16.920Z,100.00
2018-03-28T15:22:50.955Z,100.00
2018-03-28T15:25:33.895Z,100.00
2018-03-28T15:28:09.419Z,100.00
2018-03-28T15:30:44.600Z,100.00
2018-03-28T15:33:19.015Z,100.00
2018-03-28T15:35:55.737Z,100.00
2018-03-28T15:38:30.970Z,100.00
2018-03-28T15:41:08.122Z,100.00
2018-03-28T15:43:50.750Z,100.00
2018-03-28T15:49:48.924Z,100.00
2018-03-28T15:52:41.800Z,100.00
2018-03-28T15:55:18.090Z,100.00
2018-03-28T15:57:51.880Z,100.00
2018-03-28T16:00:27.457Z,100.00
2018-03-28T16:03:03.357Z,100.00
2018-03-28T16:05:37.381Z,100.00
2018-03-28T16:08:12.673Z,100.00
2018-03-28T16:10:47.087Z,100.00
2018-03-28T16:13:48.309Z,100.00
2018-03-28T16:16:35.253Z,100.00
2018-03-28T16:19:10.315Z,100.00
2018-03-28T16:21:46.045Z,100.00
2018-03-28T16:24:23.723Z,100.00
2018-03-28T16:26:57.636Z,100.00
2018-03-28T16:29:32.161Z,100.00
2018-03-28T16:32:06.302Z,100.00
2018-03-28T16:34:39.461Z,100.00
2018-03-28T16:37:16.207Z,100.00
2018-03-28T16:39:50.284Z,100.00
2018-03-28T16:45:15.957Z,100.00
2018-03-28T16:47:50.229Z,100.00
2018-03-28T16:53:12.078Z,100.00
2018-03-28T16:55:46.047Z,100.00
2018-03-28T16:58:24.274Z,100.00
2018-03-28T17:01:06.542Z,100.00
2018-03-28T17:03:43.906Z,100.00
2018-03-28T17:09:12.756Z,100.00
2018-03-28T17:11:55.590Z,100.00
2018-03-28T17:17:38.288Z,100.00
2018-03-28T17:20:12.961Z,100.00
2018-03-28T17:23:02.902Z,100.00
2018-03-28T17:25:37.800Z,100.00
2018-03-28T17:28:16.164Z,100.00
2018-03-28T17:30:50.898Z,100.00
2018-03-28T17:33:47.850Z,100.00
2018-03-28T17:38:03.666Z,100.00
2018-03-28T17:47:04.406Z,100.00
2018-03-28T17:52:43.125Z,100.00
2018-03-28T17:58:08.711Z,100.00
2018-03-28T18:00:47.941Z,100.00
2018-03-28T18:03:22.434Z,100.00
2018-03-28T18:05:59.788Z,100.00
2018-03-28T18:09:17.252Z,100.00
2018-03-28T18:11:52.094Z,100.00
2018-03-28T18:14:30.009Z,100.00
2018-03-28T18:17:07.097Z,100.00
2018-03-28T18:19:43.262Z,100.00
2018-03-28T18:22:19.004Z,100.00
2018-03-28T18:25:07.588Z,100.00
2018-03-28T18:27:42.936Z,100.00
2018-03-28T18:30:33.776Z,100.00
2018-03-28T18:33:14.502Z,100.00
2018-03-28T18:35:49.695Z,100.00
2018-03-28T18:38:26.557Z,100.00
2018-03-28T18:41:09.464Z,100.00
2018-03-28T18:43:44.057Z,100.00
2018-03-28T18:46:25.422Z,100.00
2018-03-28T18:49:08.941Z,100.00
2018-03-28T18:51:43.809Z,100.00
2018-03-28T18:54:20.082Z,100.00
2018-03-28T18:59:55.760Z,100.00
2018-03-28T19:02:35.647Z,100.00
2018-03-28T19:05:53.923Z,100.00
2018-03-28T19:08:44.807Z,100.00
2018-03-28T19:11:29.806Z,100.00
2018-03-28T19:14:05.333Z,100.00
2018-03-28T19:16:43.019Z,100.00
2018-03-28T19:19:17.515Z,100.00
2018-03-28T19:21:56.310Z,100.00
2018-03-28T19:24:38.195Z,100.00
2018-03-28T19:27:15.742Z,100.00
2018-03-28T19:29:54.928Z,100.00
2018-03-28T19:32:38.650Z,100.00
2018-03-28T19:38:37.941Z,100.00
2018-03-28T19:44:28.470Z,100.00
2018-03-28T19:47:08.242Z,100.00
2018-03-28T19:49:57.099Z,100.00
2018-03-28T19:52:30.968Z,100.00
2018-03-28T19:55:06.324Z,100.00
2018-03-28T19:57:40.189Z,100.00
2018-03-28T20:00:14.698Z,100.00
2018-03-28T20:02:48.480Z,100.00
2018-03-28T20:05:22.290Z,100.00
2018-03-28T20:08:02.684Z,100.00
2018-03-28T20:10:41.723Z,100.00
2018-03-28T20:13:15.278Z,100.00
2018-03-28T20:15:49.218Z,100.00
2018-03-28T20:18:23.066Z,100.00
2018-03-28T20:20:56.860Z,100.00
2018-03-28T20:23:31.274Z,100.00
2018-03-28T20:26:04.696Z,100.00
2018-03-28T20:28:38.929Z,100.00
2018-03-28T20:31:12.269Z,100.00
2018-03-28T20:33:46.363Z,100.00
2018-03-28T20:36:20.623Z,100.00
2018-03-28T20:38:54.091Z,100.00
2018-03-28T20:41:27.549Z,100.00
2018-03-28T20:44:07.504Z,100.00
2018-03-28T20:46:41.456Z,100.00
2018-03-28T20:49:14.917Z,100.00
2018-03-28T20:51:49.673Z,100.00
2018-03-28T20:54:23.891Z,100.00
2018-03-28T20:56:58.837Z,100.00
2018-03-28T20:59:32.911Z,100.00
2018-03-28T21:02:06.661Z,100.00
2018-03-28T21:04:41.845Z,100.00
2018-03-28T21:07:16.480Z,100.00
2018-03-28T21:09:50.228Z,100.00
2018-03-28T21:12:27.882Z,100.00
2018-03-28T21:15:02.479Z,100.00
2018-03-28T21:17:39.951Z,100.00
2018-03-28T21:20:13.371Z,100.00
2018-03-28T21:22:50.950Z,100.00
2018-03-28T21:25:25.931Z,100.00
2018-03-28T21:27:59.549Z,100.00
2018-03-28T21:30:33.225Z,100.00
2018-03-28T21:33:07.162Z,100.00
2018-03-28T21:35:40.644Z,100.00
2018-03-28T21:38:14.227Z,100.00
2018-03-28T21:40:47.914Z,100.00
2018-03-28T21:43:21.317Z,100.00
2018-03-28T21:45:54.694Z,100.00
2018-03-28T21:48:28.264Z,100.00
2018-03-28T21:51:01.711Z,100.00
2018-03-28T21:53:35.128Z,100.00
2018-03-28T21:56:08.678Z,100.00
2018-03-28T21:58:41.958Z,100.00
2018-03-28T22:01:15.354Z,100.00
2018-03-28T22:03:49.147Z,100.00
2018-03-28T22:06:22.430Z,100.00
2018-03-28T22:08:56.137Z,100.00
2018-03-28T22:11:29.569Z,100.00
2018-03-28T22:14:02.977Z,100.00
2018-03-28T22:16:36.534Z,100.00
2018-03-28T22:19:10.139Z,100.00
2018-03-28T22:21:43.556Z,100.00
2018-03-28T22:24:17.241Z,100.00
2018-03-28T22:26:50.844Z,100.00
2018-03-28T22:29:24.246Z,100.00
2018-03-28T22:31:57.695Z,100.00
2018-03-28T22:34:31.089Z,100.00
2018-03-28T22:37:04.522Z,100.00
2018-03-28T22:39:38.321Z,100.00
2018-03-28T22:42:12.803Z,100.00
2018-03-28T22:44:46.218Z,100.00
2018-03-28T22:47:19.674Z,100.00
2018-03-28T22:49:52.987Z,100.00
2018-03-28T22:52:26.648Z,100.00
2018-03-28T22:55:00.240Z,100.00
2018-03-28T22:57:33.807Z,100.00
2018-03-28T23:00:07.608Z,100.00
2018-03-28T23:02:41.929Z,100.00
2018-03-28T23:05:15.195Z,100.00
2018-03-28T23:07:48.949Z,100.00
2018-03-28T23:10:23.578Z,100.00
2018-03-28T23:12:57.180Z,100.00
2018-03-28T23:15:30.688Z,100.00
2018-03-28T23:18:05.111Z,100.00
2018-03-28T23:20:38.508Z,100.00
2018-03-28T23:23:11.824Z,100.00
2018-03-28T23:25:45.477Z,100.00
2018-03-28T23:28:19.009Z,100.00
2018-03-28T23:30:52.352Z,100.00
2018-03-28T23:33:26.124Z,100.00
2018-03-28T23:35:59.545Z,100.00
2018-03-28T23:38:33.303Z,100.00
2018-03-28T23:41:07.071Z,100.00
2018-03-28T23:43:40.405Z,100.00
2018-03-28T23:46:13.710Z,100.00
2018-03-28T23:48:47.398Z,100.00
2018-03-28T23:51:20.725Z,100.00
2018-03-28T23:53:54.111Z,100.00
2018-03-28T23:56:28.133Z,100.00
2018-03-28T23:59:01.425Z,100.00
